AirNav   Everest Fuels
 
 450 users online  

1MN5 Molnau Airpark
Waconia, Minnesota, USA

GOING TO WACONIA?


FAA INFORMATION EFFECTIVE 25 MARCH 2021

Location

FAA Identifier: 1MN5
Lat/Long: 44-50-36.8640N 093-44-23.8650W
44-50.614400N 093-44.397750W
44.8435733,-93.7399625
(estimated)
Elevation: 1000 ft. / 305 m (estimated)
Variation: 04E (1985)
From city: 2 miles SE of WACONIA, MN
Time zone: UTC -5 (UTC -6 during Standard Time)
Zip code: 55387

Airport Operations

Airport use: Private use. Permission required prior to landing
Activation date: 03/1976
Control tower: no
ARTCC: MINNEAPOLIS CENTER
FSS: PRINCETON FLIGHT SERVICE STATION
Attendance: UNATNDD
Wind indicator: yes
Segmented circle: no
Landing fee: yes

Airport Communications

WX ASOS at FCM (12 nm E): 124.9 (952-941-4156)
WX AWOS-3 at GYL (15 nm W): 119.625 (320-864-5830)
WX AWOS-3 at CFE (19 nm N): 120.45 (763-684-0762)

Nearby radio navigation aids

VOR radial/distance  VOR name  Freq  Var
FCMr274/12.7FLYING CLOUD VOR/DME117.7001E
MSPr260/21.6MINNEAPOLIS VOR/DME115.3002E
GEPr215/23.9GOPHER VORTAC117.3006E
FGTr292/27.0FARMINGTON VORTAC115.7006E
DWNr109/33.7DARWIN VORTAC109.0007E
MKTr004/38.1MANKATO VOR/DME110.8007E

Airport Services

Runway Information

Runway E/W

Dimensions: 2700 x 100 ft. / 823 x 30 m
Surface: turf
RUNWAY E  RUNWAY W
Traffic pattern: leftleft

Airport Ownership and Management from official FAA records

Ownership: Privately-owned
Owner: RICHARD J. MOLNAU
8735 REITZ LAKE ROAD
WACONIA, MN 55387
Phone 952-442-4259
Manager: RICHARD J. MOLNAU
8735 REITZ LAKE ROAD
WACONIA, MN 55387
Phone 952-442-4259

Airport Operational Statistics

Aircraft based on the field: 16
Single engine airplanes: 16
    

Additional Remarks

FOR CD CTC MINNEAPOLIS ARTCC AT 651-463-5588.

Instrument Procedures

There are no published instrument procedures at 1MN5.

Some nearby airports with instrument procedures:

KFCM - Flying Cloud Airport (12 nm E)
KGYL - Glencoe Municipal Airport (15 nm W)
KCFE - Buffalo Municipal Airport (19 nm N)
KMIC - Crystal Airport (21 nm NE)
KMSP - Minneapolis-St Paul International/Wold-Chamberlain Airport (22 nm E)
 
Loc | Ops | Rwys | IFR | FBO | Links
Com | Nav | Svcs | Stats | Notes
Area around 1MN5 (Molnau Airpark)
 
Road maps at: MapQuest Bing Google
 
Aerial photo
No photo
 
Sectional chart

 
Airport distance calculator
Flying to Molnau Airpark? Find the distance to fly.

From to 1MN5

Sunrise and sunset
Times for 19-Apr-2021
 Local
(UTC-5)
 Zulu
(UTC)
Morning civil twilight05:5410:54
Sunrise06:2511:25
Sunset20:0401:04
Evening civil twilight20:3501:35

Current date and time
Zulu (UTC)  19-Apr-2021 09:45:27
Local (UTC-5)  19-Apr-2021 04:45:27
 
METAR
KFCM 
12nm E 
190919Z AUTO 33010G20KT 10SM SCT030 OVC037 01/M05 A2993 RMK AO2 T00111050
KGYL 
16nm W 
190935Z AUTO 32014G21KT 10SM OVC027 00/M04 A2997 RMK AO2 T00001043
KCFE 
19nm N 
190935Z 10SM OVC030 00/M06 A2997 RMK AO2 T00001056
KMIC 
21nm NE 
190853Z AUTO 32012KT 10SM OVC037 01/M05 A2992 RMK AO2 SLP137 60000 T00111050 53008
KMSP 
22nm E 
190853Z 32015KT 10SM OVC038 02/M04 A2993 RMK AO2 PK WND 33026/0755 SLP139 60000 T00171044 53009
TAF
NOTAMs
Click for the latest NOTAMs
NOTAMs are issued by the DoD/FAA and will open in a separate window not controlled by AirNav.

 

 
 

Would you like to see your business listed on this page?

 If your business provides an interesting product or service to pilots, flight crews, aircraft, or users of the Molnau Airpark, you should consider listing it here.  To start the listing process, click on the button below
 
Add a business
 

Other Pages about Molnau Airpark

Update a link
 
Copyright © AirNav, LLC. All rights reserved. Privacy Policy  Contact